Detalii statie VALKAPA [00001D0A]

Toti senzorii

Date Temperatura solului [C]Precipitatii [mm]Voltaj baterie [mV]Leaf Wetness [Min]HC Air temperature [C]HC Relative humidity [%]Punctul de roua [C]
medieminmaxsumaultimatimpmedieminmaxmediemediemin
2018-08-12 11:00:00 0 7236 27.71 26.66 28.78 50.67 16.3 15.6
2018-08-12 12:00:00 0 7226 28.99 27.84 30.39 44.52 15.4 14.9
2018-08-12 13:00:00 0 7226 29.95 28.82 30.75 40.45 14.8 14.2
2018-08-12 14:00:00 0 7226 30.14 28.96 30.77 38.5 14.1 13.2
2018-08-12 15:00:00 0 7226 30.78 29.61 31.68 33.98 12.7 12.2
2018-08-12 16:00:00 0 7236 30.93 29.96 31.78 32.43 12.2 11.9
2018-08-12 17:00:00 0 7236 31.16 30.05 32.02 29.48 10.9 10.2
2018-08-12 18:00:00 0 7226 31.02 30.64 31.37 28.77 10.5 8.9
2018-08-12 19:00:00 0 7216 30.02 29.22 30.67 28.16 9.2 8.7
2018-08-12 20:00:00 0 6894 25.97 23.64 28.74 39.96 10.9 9.4
2018-08-12 21:00:00 0 6884 21.74 20.48 23.69 54.61 11.9 11.3
2018-08-12 22:00:00 0 6884 19.6 18.87 20.54 62.97 12.2 12.1
2018-08-12 23:00:00 0 6874 18.34 18.1 18.72 72.21 13.1 12.2
2018-08-13 00:00:00 0 6854 17.54 17.06 17.93 75.16 12.9 12.5
2018-08-13 01:00:00 0 6854 16.62 16.2 16.85 80.96 13.1 12.7
2018-08-13 02:00:00 0 6844 15.92 15.63 16.23 85.6 13.3 13.2
2018-08-13 03:00:00 0 6826 16.53 16.24 16.87 84.2 13.7 13.5
2018-08-13 04:00:00 0 6826 16.48 16.07 16.87 86.94 14.1 13.8
2018-08-13 05:00:00 0 6806 15.81 15.21 16.49 90 14 13.8
2018-08-13 06:00:00 0 6806 15.5 15.22 16 93.52 14.3 14.1
2018-08-13 07:00:00 0 6864 18.64 16.47 20.9 80.19 14.9 14.8
2018-08-13 08:00:00 0 6952 23.24 21.23 25.31 59.96 14.8 14.4
2018-08-13 09:00:00 0 7030 25.76 24.84 26.8 54.81 15.7 15.1
2018-08-13 10:00:00 0 7148 28.43 27.17 29.44 45.86 15.4 14.8
2018-08-13 11:00:00 0 7236 29.57 28.91 30.08 42.2 15.1 14.7
2018-08-13 12:00:00 0 7226 30.01 29.12 31.65 40.08 14.7 14.2
2018-08-13 13:00:00 0 7236 30.94 29.1 32.38 36.46 14 13.6
2018-08-13 14:00:00 0 7226 31.95 30.95 33.79 33.15 13.4 12.5
2018-08-13 15:00:00 0 7226 32.54 31.46 33.19 30.81 12.8 12.3
2018-08-13 16:00:00 0 7236 32.72 31.62 33.68 30.7 12.9 12.3
2018-08-13 17:00:00 0 7226 32.21 31.77 32.64 30.88 12.6 11.9
2018-08-13 18:00:00 0 7226 32.01 31.68 32.48 30.76 12.4 12
2018-08-13 19:00:00 0 7080 30.83 30 31.56 33.05 12.4 11.8
2018-08-13 20:00:00 0 6894 27.99 26.39 29.82 41.66 13.4 12.9
2018-08-13 21:00:00 0 6884 24.99 23.98 26.23 53.32 14.6 14
2018-08-13 22:00:00 0 6874 22.23 21 23.85 65.34 15.2 14.9
2018-08-13 23:00:00 0 6874 20.52 19.63 21.22 73.94 15.5 15.3
2018-08-14 00:00:00 0 6864 19.67 19.23 20.18 80.19 16 15.4
2018-08-14 01:00:00 0 6854 19.09 18.69 20.08 84.69 16.3 15.8
2018-08-14 02:00:00 0 6844 20.22 19.56 20.62 78.34 16.1 15.9
2018-08-14 03:00:00 0 6834 19.01 17.89 20.13 82.98 15.8 15.7
2018-08-14 04:00:00 0 6826 17.26 16.72 18 92.17 15.8 15.6
2018-08-14 05:00:00 0 6816 17.39 16.27 18.23 94.22 16.3 15.4
2018-08-14 06:00:00 0 6816 17.3 16.73 17.78 93.86 16.2 15.4
2018-08-14 07:00:00 0 6864 19.59 18.44 20.85 80.85 16 15.7
2018-08-14 08:00:00 0 6962 22.96 21.2 24.65 64.34 15.7 15.2
2018-08-14 09:00:00 0 7010 27.57 25.09 29.3 45.67 14.4 13.8
2018-08-14 10:00:00 0 7118 29.07 27.94 30.05 36.89 12.5 11.4